Time;durP1;ratioP1;P1;durP2;ratioP2;P2;SDS_P1;SDS_P2;PMS_P1;PMS_P2;Temp;Humidity;BMP_temperature;BMP_pressure;BME280_temperature;BME280_humidity;BME280_pressure;Samples;Min_cycle;Max_cycle;Signal;HPM_P1;HPM_P2
2021/03/18 00:00:53;;;;;;;2.17;1.25;;;5.20;67.30;;;;;;10050710;28;20067;-62
2021/03/18 00:05:45;;;;;;;2.47;1.38;;;5.30;67.20;;;;;;10052014;28;20398;-62
2021/03/18 00:10:36;;;;;;;7.72;1.98;;;5.20;67.20;;;;;;10055380;28;20318;-62
2021/03/18 00:15:29;;;;;;;1.25;0.95;;;5.30;66.80;;;;;;10049022;28;20033;-63
2021/03/18 00:20:19;;;;;;;1.38;1.10;;;5.30;65.80;;;;;;10052720;28;20037;-62
2021/03/18 00:25:13;;;;;;;2.13;0.98;;;5.20;66.10;;;;;;10050939;28;20064;-62
2021/03/18 00:30:06;;;;;;;5.15;1.40;;;5.20;66.00;;;;;;10051371;28;20542;-61
2021/03/18 00:34:57;;;;;;;5.65;1.40;;;5.30;65.60;;;;;;10048878;28;20421;-63
2021/03/18 00:39:48;;;;;;;2.97;1.40;;;5.20;65.80;;;;;;10050422;28;20026;-63
2021/03/18 00:44:38;;;;;;;2.47;1.17;;;5.20;65.90;;;;;;10052151;28;20026;-62
2021/03/18 00:49:29;;;;;;;3.45;1.38;;;5.20;66.00;;;;;;10051692;28;20511;-62
2021/03/18 00:54:20;;;;;;;2.97;1.35;;;5.20;65.80;;;;;;10051231;28;20416;-62
2021/03/18 00:59:11;;;;;;;3.38;1.27;;;5.20;66.00;;;;;;10049583;28;20026;-62
2021/03/18 01:04:02;;;;;;;3.78;1.42;;;5.20;66.10;;;;;;10048929;28;20028;-61
2021/03/18 01:08:54;;;;;;;3.60;1.20;;;5.20;65.90;;;;;;10053448;28;20133;-62
2021/03/18 01:13:48;;;;;;;2.70;1.50;;;5.10;66.10;;;;;;10049705;28;20148;-63
2021/03/18 01:18:42;;;;;;;3.40;1.27;;;5.20;66.70;;;;;;10046074;28;20029;-63
2021/03/18 01:23:33;;;;;;;2.35;1.13;;;5.10;65.80;;;;;;10047819;28;20025;-62
2021/03/18 01:28:25;;;;;;;4.35;1.10;;;5.20;66.00;;;;;;10044030;28;20116;-62
2021/03/18 01:33:16;;;;;;;3.25;1.10;;;5.20;65.70;;;;;;10047700;28;20046;-62
2021/03/18 01:38:06;;;;;;;1.95;0.90;;;5.00;65.60;;;;;;10049897;28;20029;-61
2021/03/18 01:42:58;;;;;;;3.75;1.05;;;5.00;65.50;;;;;;10047852;28;20021;-61
2021/03/18 01:47:51;;;;;;;1.60;0.95;;;4.80;65.60;;;;;;10049327;28;20570;-62
2021/03/18 01:52:42;;;;;;;1.80;1.17;;;4.70;66.40;;;;;;10047362;28;20035;-62
2021/03/18 01:57:34;;;;;;;4.07;1.15;;;4.60;65.80;;;;;;10047400;28;20148;-63
2021/03/18 02:02:25;;;;;;;2.25;0.90;;;4.60;65.90;;;;;;10051011;28;20037;-62
2021/03/18 02:07:16;;;;;;;2.75;1.20;;;4.50;65.90;;;;;;10046819;28;20491;-62
2021/03/18 02:12:07;;;;;;;1.67;0.80;;;4.50;65.90;;;;;;10054760;28;20545;-62
2021/03/18 02:17:02;;;;;;;1.27;1.00;;;4.40;65.90;;;;;;10047219;28;20291;-62
2021/03/18 02:22:31;;;;;;;2.30;0.98;;;4.40;66.00;;;;;;10046371;28;20029;-62
2021/03/18 02:27:55;;;;;;;1.10;0.77;;;4.30;66.00;;;;;;10044372;28;20117;-62
2021/03/18 02:33:14;;;;;;;2.03;0.93;;;4.30;66.20;;;;;;10040046;28;20132;-62
2021/03/18 02:38:22;;;;;;;1.17;0.80;;;4.30;66.20;;;;;;10045029;28;20196;-62
2021/03/18 02:43:16;;;;;;;3.08;1.02;;;4.20;66.40;;;;;;10047040;28;21204;-62
2021/03/18 02:48:11;;;;;;;1.45;0.88;;;4.20;66.20;;;;;;10046989;28;20126;-62
2021/03/18 02:53:02;;;;;;;2.83;1.13;;;4.10;66.40;;;;;;10069712;28;20045;-62
2021/03/18 02:57:55;;;;;;;1.00;0.88;;;4.10;66.50;;;;;;10054121;28;20026;-61
2021/03/18 03:02:47;;;;;;;1.00;0.80;;;4.00;66.90;;;;;;10055724;28;20030;-63
2021/03/18 03:07:39;;;;;;;1.80;1.20;;;3.90;66.80;;;;;;10054249;28;20025;-61
2021/03/18 03:12:32;;;;;;;2.72;1.23;;;3.90;66.90;;;;;;10058410;28;20103;-61
2021/03/18 03:17:26;;;;;;;1.40;1.10;;;3.90;66.90;;;;;;10052788;28;20037;-62
2021/03/18 03:22:17;;;;;;;2.53;1.13;;;3.90;66.90;;;;;;10049844;28;20112;-62
2021/03/18 03:27:08;;;;;;;2.42;1.00;;;3.90;66.90;;;;;;10051860;28;20507;-61
2021/03/18 03:31:59;;;;;;;3.60;1.15;;;3.80;66.90;;;;;;10054504;28;20124;-62
2021/03/18 03:36:50;;;;;;;3.40;1.35;;;3.80;67.20;;;;;;10046344;28;20029;-63
2021/03/18 03:41:42;;;;;;;5.82;1.25;;;3.70;67.10;;;;;;10052949;28;20506;-61
2021/03/18 03:46:34;;;;;;;1.25;0.93;;;3.60;67.40;;;;;;10054305;28;20502;-62
2021/03/18 03:51:32;;;;;;;2.40;1.40;;;3.60;67.60;;;;;;10050497;28;20033;-61
2021/03/18 03:56:24;;;;;;;2.20;1.15;;;3.60;67.40;;;;;;10050767;28;20108;-62
2021/03/18 04:01:37;;;;;;;2.60;1.10;;;3.70;67.20;;;;;;10053209;28;20033;-63
2021/03/18 04:06:29;;;;;;;6.38;1.60;;;3.60;67.40;;;;;;10051808;28;20025;-63
2021/03/18 04:11:20;;;;;;;1.15;0.95;;;3.50;67.60;;;;;;10051036;28;20056;-62
2021/03/18 04:16:12;;;;;;;2.10;1.33;;;3.50;67.80;;;;;;10050591;28;20128;-63
2021/03/18 04:21:07;;;;;;;2.45;1.40;;;3.50;67.50;;;;;;10050024;28;20049;-61
2021/03/18 04:25:59;;;;;;;3.83;1.35;;;3.60;67.50;;;;;;10048339;28;20600;-62
2021/03/18 04:30:50;;;;;;;2.83;1.30;;;3.50;67.60;;;;;;10049152;28;20112;-63
2021/03/18 04:35:42;;;;;;;2.70;1.33;;;3.50;67.70;;;;;;10050475;28;20033;-62
2021/03/18 04:40:33;;;;;;;2.63;1.48;;;3.50;67.50;;;;;;10049723;28;20034;-62
2021/03/18 04:45:25;;;;;;;3.17;2.33;;;3.50;67.60;;;;;;10050946;28;20128;-61
2021/03/18 04:50:22;;;;;;;2.28;1.27;;;3.60;67.70;;;;;;10050955;28;20034;-62
2021/03/18 04:55:13;;;;;;;;;;;3.40;67.80;;;;;;10047694;28;20439;-63
2021/03/18 05:00:05;;;;;;;5.13;1.52;;;3.50;68.10;;;;;;10049985;28;19971;-62
2021/03/18 05:04:56;;;;;;;4.03;1.63;;;3.40;67.90;;;;;;10046075;28;20316;-63
2021/03/18 05:09:47;;;;;;;3.88;1.60;;;3.50;67.90;;;;;;10048845;28;20033;-62
2021/03/18 05:14:39;;;;;;;2.53;1.48;;;3.50;67.70;;;;;;10047742;28;20040;-62
2021/03/18 05:19:30;;;;;;;3.42;1.77;;;3.50;67.90;;;;;;10045259;28;20072;-62
2021/03/18 05:24:22;;;;;;;3.70;1.25;;;3.50;68.00;;;;;;10030680;28;20609;-62
2021/03/18 05:29:15;;;;;;;3.35;1.45;;;3.50;68.00;;;;;;10048425;28;20014;-62
2021/03/18 05:34:06;;;;;;;3.45;1.55;;;3.40;68.30;;;;;;10045855;28;20084;-62
2021/03/18 05:38:58;;;;;;;3.97;1.33;;;3.40;68.20;;;;;;10048180;28;20471;-61
2021/03/18 05:43:50;;;;;;;4.47;1.67;;;3.50;68.30;;;;;;10046811;28;20021;-61
2021/03/18 05:48:42;;;;;;;4.60;1.10;;;3.40;68.30;;;;;;10046079;28;20037;-63
2021/03/18 05:53:33;;;;;;;5.00;2.13;;;3.40;68.40;;;;;;10048980;28;20048;-62
2021/03/18 05:58:25;;;;;;;3.53;1.70;;;3.40;68.60;;;;;;10047841;28;20037;-60
2021/03/18 06:03:20;;;;;;;2.83;1.65;;;3.40;68.60;;;;;;10048242;28;20152;-63
2021/03/18 06:08:11;;;;;;;6.47;2.08;;;3.50;68.30;;;;;;10045949;28;20033;-63
2021/03/18 06:13:02;;;;;;;4.53;2.03;;;3.50;68.20;;;;;;10048099;28;20261;-62
2021/03/18 06:17:54;;;;;;;2.63;1.67;;;3.40;68.00;;;;;;10045576;28;20026;-63
2021/03/18 06:22:47;;;;;;;3.08;1.60;;;3.40;68.40;;;;;;10062683;28;20057;-63
2021/03/18 06:27:38;;;;;;;3.00;1.73;;;3.30;68.30;;;;;;10048220;28;20499;-60
2021/03/18 06:32:29;;;;;;;3.97;1.80;;;3.30;68.20;;;;;;10044768;28;20048;-62
2021/03/18 06:37:49;;;;;;;4.00;1.73;;;3.40;68.10;;;;;;10048763;28;20064;-63
2021/03/18 06:42:42;;;;;;;3.08;1.48;;;3.40;68.10;;;;;;10048612;28;20108;-63
2021/03/18 06:47:40;;;;;;;3.42;1.33;;;3.30;68.30;;;;;;10048631;28;20169;-62
2021/03/18 06:52:38;;;;;;;5.15;1.85;;;3.40;68.20;;;;;;10047113;28;20398;-63
2021/03/18 06:57:29;;;;;;;1.90;1.35;;;3.30;68.30;;;;;;10045426;28;20617;-62
2021/03/18 07:02:20;;;;;;;4.72;2.05;;;3.30;68.50;;;;;;10046181;28;20499;-61
2021/03/18 07:07:11;;;;;;;3.55;1.70;;;3.30;68.30;;;;;;10044356;28;20285;-62
2021/03/18 07:12:13;;;;;;;3.88;1.80;;;3.30;68.50;;;;;;10053922;28;20026;-63
2021/03/18 07:17:05;;;;;;;3.97;2.28;;;3.40;68.40;;;;;;10048682;28;20044;-62
2021/03/18 07:21:57;;;;;;;3.72;1.63;;;3.30;68.40;;;;;;10043662;28;20036;-62
2021/03/18 07:26:48;;;;;;;4.53;2.97;;;3.40;68.30;;;;;;10043912;28;20025;-63
2021/03/18 07:31:40;;;;;;;3.00;1.80;;;3.60;68.30;;;;;;10047341;28;20060;-63
2021/03/18 07:36:31;;;;;;;2.58;1.75;;;3.70;67.90;;;;;;10048837;28;20461;-61
2021/03/18 07:41:23;;;;;;;2.47;1.60;;;3.70;68.00;;;;;;10054774;28;20033;-63
2021/03/18 07:46:20;;;;;;;3.70;1.95;;;3.90;67.90;;;;;;10052443;28;20133;-63
2021/03/18 07:51:13;;;;;;;4.80;2.38;;;4.00;67.50;;;;;;10055834;28;20029;-62
2021/03/18 07:56:09;;;;;;;3.60;2.42;;;4.00;67.50;;;;;;10052916;28;20113;-64
2021/03/18 08:01:00;;;;;;;3.25;2.08;;;4.00;67.40;;;;;;10055612;28;20722;-63
2021/03/18 08:05:50;;;;;;;4.18;2.05;;;4.10;67.50;;;;;;10047757;28;20441;-63
2021/03/18 08:10:42;;;;;;;3.55;1.75;;;4.20;67.20;;;;;;10054963;28;20360;-64
2021/03/18 08:15:39;;;;;;;4.65;1.98;;;4.30;66.90;;;;;;10051679;28;20029;-64
2021/03/18 08:20:58;;;;;;;3.70;2.80;;;4.40;66.40;;;;;;10047522;28;20083;-64
2021/03/18 08:25:50;;;;;;;3.38;1.85;;;4.40;66.30;;;;;;10052953;28;20033;-66
2021/03/18 08:30:41;;;;;;;6.25;3.35;;;4.70;67.20;;;;;;10049883;28;20017;-66
2021/03/18 08:35:32;;;;;;;6.38;3.35;;;4.70;65.80;;;;;;10049022;28;20053;-63
2021/03/18 08:40:29;;;;;;;7.10;2.80;;;4.80;65.90;;;;;;10051426;28;20045;-63
2021/03/18 08:45:20;;;;;;;4.15;2.53;;;4.90;66.00;;;;;;10047654;28;20654;-64
2021/03/18 08:50:32;;;;;;;4.85;1.98;;;5.10;65.80;;;;;;10047443;28;20029;-65
2021/03/18 08:55:36;;;;;;;5.18;2.20;;;5.10;65.50;;;;;;10048973;28;20427;-63
2021/03/18 09:00:27;;;;;;;5.43;3.05;;;5.30;65.40;;;;;;10049386;28;20027;-61
2021/03/18 09:05:21;;;;;;;3.63;2.35;;;5.40;65.10;;;;;;10049157;28;20271;-63
2021/03/18 09:10:25;;;;;;;4.75;2.95;;;5.50;64.70;;;;;;10046217;28;20117;-63
2021/03/18 09:15:33;;;;;;;4.30;3.15;;;5.60;64.60;;;;;;10048054;28;20033;-64
2021/03/18 09:20:27;;;;;;;3.90;2.25;;;5.80;64.50;;;;;;10044028;28;20075;-63
2021/03/18 09:25:25;;;;;;;4.30;2.33;;;5.90;64.00;;;;;;10049479;28;20025;-63
2021/03/18 09:30:20;;;;;;;4.13;2.55;;;5.90;63.80;;;;;;10042007;28;20032;-63
2021/03/18 09:35:13;;;;;;;3.88;2.28;;;6.10;63.90;;;;;;10046145;28;20057;-62
2021/03/18 09:40:07;;;;;;;4.07;2.08;;;6.20;63.50;;;;;;10046805;28;20099;-62
2021/03/18 09:44:59;;;;;;;4.47;1.95;;;6.20;62.60;;;;;;10047326;28;20414;-63
2021/03/18 09:49:52;;;;;;;7.18;2.60;;;6.30;62.60;;;;;;10046018;28;20036;-63
2021/03/18 09:54:43;;;;;;;2.65;2.08;;;6.40;62.90;;;;;;10046646;28;20044;-62
2021/03/18 09:59:35;;;;;;;4.75;2.83;;;6.50;62.50;;;;;;10053670;28;20033;-64
2021/03/18 10:04:26;;;;;;;4.85;2.90;;;6.40;62.30;;;;;;10046574;28;20099;-64
2021/03/18 10:09:20;;;;;;;5.68;1.88;;;6.40;62.50;;;;;;10044105;28;20083;-63
2021/03/18 10:14:12;;;;;;;7.78;2.95;;;6.60;62.20;;;;;;10042505;28;20033;-65
2021/03/18 10:19:05;;;;;;;4.50;2.67;;;6.70;61.60;;;;;;10047476;28;20032;-68
2021/03/18 10:23:56;;;;;;;4.63;1.67;;;6.90;61.40;;;;;;10043870;28;20029;-65
2021/03/18 10:28:47;;;;;;;10.02;2.85;;;7.00;60.40;;;;;;10049055;28;20116;-65
2021/03/18 10:33:37;;;;;;;4.10;2.47;;;7.10;61.50;;;;;;10046192;28;20069;-63
2021/03/18 10:38:37;;;;;;;4.75;2.08;;;7.20;60.50;;;;;;10046406;28;20527;-63
2021/03/18 10:43:31;;;;;;;5.32;2.55;;;7.40;60.30;;;;;;10042555;28;20018;-62
2021/03/18 10:48:24;;;;;;;4.95;2.53;;;7.20;59.70;;;;;;10040919;28;20038;-63
2021/03/18 10:53:15;;;;;;;3.88;2.05;;;7.00;59.80;;;;;;10046917;28;20686;-64
2021/03/18 10:58:15;;;;;;;3.95;2.17;;;7.00;60.20;;;;;;10047301;28;20277;-63
2021/03/18 11:03:17;;;;;;;4.45;2.45;;;6.90;60.10;;;;;;10046559;28;20107;-63
2021/03/18 11:08:10;;;;;;;3.95;2.22;;;6.90;59.50;;;;;;10044902;28;20412;-63
2021/03/18 11:13:05;;;;;;;4.70;1.98;;;6.90;59.60;;;;;;10053526;28;20045;-63
2021/03/18 11:18:07;;;;;;;4.93;2.13;;;6.90;59.20;;;;;;10052480;28;20022;-64
2021/03/18 11:22:59;;;;;;;3.53;2.50;;;7.00;58.70;;;;;;10050748;28;20136;-64
2021/03/18 11:27:52;;;;;;;2.35;1.80;;;7.10;58.60;;;;;;10050918;28;20046;-65
2021/03/18 11:32:43;;;;;;;6.35;2.22;;;7.50;57.90;;;;;;10052018;28;20407;-63
2021/03/18 11:37:34;;;;;;;3.65;1.35;;;7.90;57.80;;;;;;10051375;28;20041;-66
2021/03/18 11:42:25;;;;;;;1.60;1.25;;;8.40;56.90;;;;;;10050286;28;20269;-67
2021/03/18 11:47:16;;;;;;;2.33;1.75;;;8.20;54.80;;;;;;10050934;28;20025;-65
2021/03/18 11:52:08;;;;;;;1.70;0.93;;;8.00;53.50;;;;;;10056432;28;20124;-68
2021/03/18 11:56:59;;;;;;;2.15;1.58;;;8.20;54.20;;;;;;10046629;28;20041;-66
2021/03/18 12:01:50;;;;;;;1.35;1.08;;;8.40;53.00;;;;;;10053733;28;20391;-65
2021/03/18 12:06:41;;;;;;;1.77;1.15;;;8.50;51.90;;;;;;10051062;28;20503;-63
2021/03/18 12:11:33;;;;;;;3.58;1.02;;;9.00;52.70;;;;;;10056871;28;20227;-68
2021/03/18 12:16:24;;;;;;;1.70;1.25;;;9.20;52.00;;;;;;10034624;28;20068;-67
2021/03/18 12:21:15;;;;;;;3.05;1.25;;;9.50;51.50;;;;;;10050263;28;20326;-65
2021/03/18 12:26:06;;;;;;;2.22;1.30;;;9.60;51.00;;;;;;10046911;28;20064;-68
2021/03/18 12:30:57;;;;;;;1.52;1.10;;;10.00;51.20;;;;;;10047885;28;20127;-66
2021/03/18 12:35:49;;;;;;;1.63;1.05;;;10.20;49.00;;;;;;10047661;28;20042;-67
2021/03/18 12:40:40;;;;;;;2.50;1.13;;;9.80;49.00;;;;;;10048227;28;20026;-66
2021/03/18 12:45:32;;;;;;;1.45;1.00;;;9.50;50.10;;;;;;10077588;28;20025;-64
2021/03/18 12:50:22;;;;;;;1.15;0.43;;;9.30;50.50;;;;;;10047732;28;20399;-67
2021/03/18 12:55:15;;;;;;;2.35;0.60;;;8.90;48.80;;;;;;10061756;28;20041;-68
2021/03/18 13:00:08;;;;;;;3.38;1.30;;;8.90;49.70;;;;;;10045636;28;20586;-64
2021/03/18 13:04:59;;;;;;;1.63;0.98;;;9.20;49.30;;;;;;10049158;28;20025;-66
2021/03/18 13:09:50;;;;;;;3.15;1.20;;;9.60;48.60;;;;;;10061999;28;20033;-65
2021/03/18 13:14:40;;;;;;;3.53;1.25;;;10.70;48.10;;;;;;10042737;28;20029;-71
2021/03/18 13:19:31;;;;;;;3.05;1.15;;;10.50;47.80;;;;;;10049010;28;20450;-65
2021/03/18 13:24:23;;;;;;;2.78;1.15;;;9.80;47.40;;;;;;10042696;28;20300;-63
2021/03/18 13:29:14;;;;;;;2.45;1.30;;;9.50;47.40;;;;;;10047173;28;20033;-64
2021/03/18 13:34:05;;;;;;;2.53;1.02;;;9.40;48.20;;;;;;10048564;28;20057;-64
2021/03/18 13:38:56;;;;;;;1.85;1.17;;;9.20;46.50;;;;;;10046192;28;20475;-66
2021/03/18 13:43:47;;;;;;;2.38;1.30;;;9.10;47.80;;;;;;10051331;28;20593;-64
2021/03/18 13:48:38;;;;;;;4.72;1.50;;;9.30;47.40;;;;;;10049724;28;20030;-63
2021/03/18 13:53:29;;;;;;;3.20;1.30;;;9.70;47.50;;;;;;10048930;28;20282;-63
2021/03/18 13:58:20;;;;;;;5.43;1.42;;;10.00;47.20;;;;;;10051016;28;20460;-63
2021/03/18 14:03:11;;;;;;;1.38;0.82;;;10.40;47.20;;;;;;10049532;28;20106;-64
2021/03/18 14:08:03;;;;;;;3.42;1.92;;;11.10;47.00;;;;;;10045235;28;20109;-63
2021/03/18 14:12:55;;;;;;;3.00;1.30;;;11.10;47.10;;;;;;10047284;28;20052;-63
2021/03/18 14:17:47;;;;;;;2.13;1.30;;;10.50;48.10;;;;;;10044337;28;20029;-62
2021/03/18 14:22:38;;;;;;;4.88;1.65;;;10.10;48.30;;;;;;10041436;28;20196;-63
2021/03/18 14:27:29;;;;;;;1.67;1.42;;;9.80;48.40;;;;;;10044675;28;20070;-64
2021/03/18 14:32:20;;;;;;;1.52;0.98;;;9.40;48.70;;;;;;10046452;28;20053;-63
2021/03/18 14:37:11;;;;;;;3.83;1.70;;;9.20;48.70;;;;;;10047606;28;20033;-63
2021/03/18 14:42:02;;;;;;;4.45;1.70;;;8.90;49.00;;;;;;10047547;28;20083;-65
2021/03/18 14:46:52;;;;;;;2.15;1.65;;;8.90;48.80;;;;;;10048654;28;20105;-64
2021/03/18 14:51:43;;;;;;;3.80;1.30;;;8.60;49.20;;;;;;10048771;28;20060;-66
2021/03/18 14:56:34;;;;;;;2.63;1.17;;;8.50;49.20;;;;;;10043893;28;20041;-64
2021/03/18 15:01:26;;;;;;;2.03;1.40;;;8.60;49.00;;;;;;10047185;28;20732;-63
2021/03/18 15:06:17;;;;;;;3.83;1.45;;;8.30;49.20;;;;;;10048494;28;20033;-62
2021/03/18 15:11:08;;;;;;;3.67;1.90;;;8.10;49.70;;;;;;10045727;28;20028;-64
2021/03/18 15:15:59;;;;;;;3.65;1.85;;;7.80;50.30;;;;;;10046799;28;21268;-65
2021/03/18 15:20:50;;;;;;;3.47;1.50;;;7.70;50.50;;;;;;10044718;28;20052;-73
2021/03/18 15:25:41;;;;;;;2.17;1.25;;;7.80;50.80;;;;;;10044571;28;20334;-64
2021/03/18 15:30:33;;;;;;;3.25;1.40;;;7.80;50.70;;;;;;10046000;28;20084;-64
2021/03/18 15:35:25;;;;;;;2.55;1.27;;;8.20;50.50;;;;;;10047325;28;20107;-62
2021/03/18 15:40:21;;;;;;;2.25;1.45;;;8.30;50.30;;;;;;10048029;28;20125;-62
2021/03/18 15:45:13;;;;;;;1.65;1.30;;;8.40;50.50;;;;;;10043824;28;20714;-63
2021/03/18 15:50:06;;;;;;;2.08;1.30;;;8.60;50.50;;;;;;10043970;28;20430;-64
2021/03/18 15:54:56;;;;;;;3.30;1.48;;;8.50;50.70;;;;;;10046972;28;20026;-64
2021/03/18 15:59:47;;;;;;;1.90;1.23;;;8.70;50.70;;;;;;10052625;28;20033;-64
2021/03/18 16:04:38;;;;;;;1.58;1.20;;;8.80;50.70;;;;;;10044297;28;20052;-62
2021/03/18 16:09:29;;;;;;;1.58;1.15;;;8.80;50.80;;;;;;10053090;28;20025;-62
2021/03/18 16:14:20;;;;;;;1.70;1.13;;;8.90;50.70;;;;;;10051716;28;20045;-64
2021/03/18 16:19:11;;;;;;;1.88;1.33;;;9.00;50.40;;;;;;10063079;28;20040;-63
2021/03/18 16:24:03;;;;;;;1.42;1.17;;;9.20;49.80;;;;;;10050333;28;20021;-63
2021/03/18 16:28:53;;;;;;;3.05;1.75;;;10.20;49.10;;;;;;10051755;28;20223;-62
2021/03/18 16:33:45;;;;;;;1.77;1.40;;;10.70;47.60;;;;;;10065280;28;20193;-64
2021/03/18 16:38:35;;;;;;;2.17;1.42;;;9.70;49.00;;;;;;10053633;28;20159;-63
2021/03/18 16:43:30;;;;;;;3.50;1.25;;;9.50;49.60;;;;;;10049538;28;20117;-64
2021/03/18 16:48:21;;;;;;;3.13;0.95;;;9.20;49.60;;;;;;10051040;28;20026;-66
2021/03/18 16:53:12;;;;;;;1.67;1.10;;;8.80;49.10;;;;;;10051331;28;20124;-62
2021/03/18 16:58:04;;;;;;;3.65;0.77;;;8.60;49.70;;;;;;10049960;28;20025;-63
2021/03/18 17:02:55;;;;;;;1.20;0.55;;;8.30;49.10;;;;;;10050684;28;20040;-64
2021/03/18 17:07:46;;;;;;;1.77;0.98;;;8.40;49.10;;;;;;10050313;28;20024;-63
2021/03/18 17:12:38;;;;;;;1.45;0.98;;;8.20;48.60;;;;;;10047453;28;20037;-63
2021/03/18 17:17:29;;;;;;;1.85;1.25;;;7.90;48.60;;;;;;10049241;28;20037;-64
2021/03/18 17:22:19;;;;;;;1.73;1.23;;;7.70;48.40;;;;;;10051438;28;20033;-62
2021/03/18 17:27:12;;;;;;;2.00;1.40;;;7.60;48.10;;;;;;10050610;28;20075;-63
2021/03/18 17:32:03;;;;;;;1.17;0.80;;;7.60;47.90;;;;;;10052051;28;20037;-64
2021/03/18 17:36:55;;;;;;;2.53;1.40;;;7.50;47.70;;;;;;10048304;28;20030;-63
2021/03/18 17:41:45;;;;;;;2.47;1.40;;;7.40;47.80;;;;;;10049966;28;20037;-63
2021/03/18 17:46:36;;;;;;;2.95;1.70;;;7.20;48.20;;;;;;10045675;28;20040;-62
2021/03/18 17:51:27;;;;;;;5.25;2.10;;;7.10;48.40;;;;;;10048972;28;20116;-63
2021/03/18 17:56:27;;;;;;;2.38;1.58;;;7.00;48.80;;;;;;10049913;28;20033;-63
2021/03/18 18:01:19;;;;;;;3.17;1.88;;;7.00;49.10;;;;;;10047320;28;20337;-62
2021/03/18 18:06:10;;;;;;;4.22;2.15;;;6.90;49.30;;;;;;10045486;28;20769;-68
2021/03/18 18:11:01;;;;;;;7.30;2.10;;;6.90;49.70;;;;;;10049396;28;20530;-69
2021/03/18 18:15:52;;;;;;;2.42;1.65;;;6.90;49.80;;;;;;10044866;28;20075;-67
2021/03/18 18:20:43;;;;;;;3.22;1.45;;;6.80;50.10;;;;;;10047673;28;20029;-67
2021/03/18 18:25:34;;;;;;;3.40;1.83;;;6.80;50.30;;;;;;10049151;28;20044;-65
2021/03/18 18:30:28;;;;;;;2.85;1.73;;;6.80;50.50;;;;;;10045995;28;20044;-66
2021/03/18 18:35:20;;;;;;;2.75;1.58;;;6.70;51.00;;;;;;10042338;28;20038;-67
2021/03/18 18:40:13;;;;;;;2.63;1.73;;;6.60;51.50;;;;;;10046213;28;20505;-64
2021/03/18 18:45:06;;;;;;;3.53;2.00;;;6.60;51.60;;;;;;10047692;28;20369;-63
2021/03/18 18:49:56;;;;;;;2.97;2.28;;;6.60;51.80;;;;;;10048501;28;20021;-64
2021/03/18 18:54:49;;;;;;;2.75;1.77;;;6.50;52.30;;;;;;10035809;28;20037;-65
2021/03/18 18:59:39;;;;;;;6.22;2.58;;;6.50;52.40;;;;;;10043037;28;20078;-62
2021/03/18 19:04:30;;;;;;;5.20;2.75;;;6.50;53.30;;;;;;10045490;28;20061;-63
2021/03/18 19:09:21;;;;;;;4.72;2.25;;;6.50;53.20;;;;;;10038727;28;20079;-63
2021/03/18 19:14:12;;;;;;;3.22;1.90;;;6.50;53.60;;;;;;10047015;28;20041;-63
2021/03/18 19:19:03;;;;;;;3.50;2.33;;;6.40;54.00;;;;;;10041591;28;20094;-64
2021/03/18 19:23:55;;;;;;;5.03;2.38;;;6.40;54.40;;;;;;10043242;28;20025;-63
2021/03/18 19:28:45;;;;;;;4.03;2.03;;;6.30;54.60;;;;;;10036184;28;20072;-64
2021/03/18 19:33:36;;;;;;;2.80;2.33;;;6.30;54.80;;;;;;10037968;28;20122;-64
2021/03/18 19:38:28;;;;;;;3.03;2.00;;;6.30;55.30;;;;;;10050129;28;20037;-65
2021/03/18 19:43:19;;;;;;;5.53;2.10;;;6.10;56.10;;;;;;10052964;28;20083;-64
2021/03/18 19:48:12;;;;;;;5.82;2.55;;;6.10;56.00;;;;;;10051648;28;20541;-64
2021/03/18 19:53:04;;;;;;;3.92;2.17;;;6.20;56.20;;;;;;10048883;28;20033;-63
2021/03/18 19:57:55;;;;;;;4.32;2.05;;;6.10;56.40;;;;;;10051802;28;20064;-65
2021/03/18 20:02:48;;;;;;;5.43;2.25;;;6.10;56.60;;;;;;10052362;28;20342;-63
2021/03/18 20:07:39;;;;;;;4.00;2.83;;;6.10;56.90;;;;;;10047539;28;20056;-62
2021/03/18 20:12:30;;;;;;;4.65;2.63;;;6.10;57.00;;;;;;10053923;28;20503;-62
2021/03/18 20:17:21;;;;;;;5.20;2.22;;;6.10;57.20;;;;;;10048585;28;20068;-62
2021/03/18 20:22:12;;;;;;;4.78;2.65;;;6.00;57.50;;;;;;10049074;28;20510;-62
2021/03/18 20:27:03;;;;;;;4.82;2.60;;;6.00;57.70;;;;;;10046883;28;20033;-63
2021/03/18 20:31:53;;;;;;;4.47;2.70;;;6.00;57.70;;;;;;10050367;28;20241;-65
2021/03/18 20:36:44;;;;;;;3.75;2.40;;;6.00;58.00;;;;;;10051586;28;20443;-64
2021/03/18 20:41:35;;;;;;;9.57;3.42;;;6.00;58.50;;;;;;10049800;28;20495;-64
2021/03/18 20:46:26;;;;;;;5.00;3.25;;;6.00;58.60;;;;;;10049685;28;20016;-64
2021/03/18 20:51:18;;;;;;;9.05;3.05;;;6.00;58.60;;;;;;10049702;28;20499;-65
2021/03/18 20:56:12;;;;;;;6.65;2.95;;;6.10;58.70;;;;;;10053552;28;20041;-63
2021/03/18 21:01:03;;;;;;;4.93;3.40;;;5.90;59.00;;;;;;10050834;28;20065;-64
2021/03/18 21:05:53;;;;;;;6.95;3.28;;;5.90;59.20;;;;;;10048975;28;20633;-63
2021/03/18 21:10:44;;;;;;;4.78;3.45;;;5.90;59.60;;;;;;10047630;28;20510;-63
2021/03/18 21:15:35;;;;;;;5.05;3.10;;;5.90;59.60;;;;;;10049801;28;20040;-64
2021/03/18 21:20:26;;;;;;;6.00;3.15;;;5.90;59.70;;;;;;10049509;28;20021;-63
2021/03/18 21:25:18;;;;;;;6.82;3.40;;;6.00;59.80;;;;;;10049081;28;20059;-63
2021/03/18 21:30:10;;;;;;;4.63;3.40;;;6.00;60.00;;;;;;10049702;28;20068;-63
2021/03/18 21:35:01;;;;;;;5.70;2.97;;;6.00;60.00;;;;;;10050803;28;20037;-65
2021/03/18 21:39:52;;;;;;;6.18;2.63;;;6.00;60.30;;;;;;10049488;28;20432;-63
2021/03/18 21:44:42;;;;;;;5.88;3.17;;;5.90;60.40;;;;;;10049772;28;20364;-65
2021/03/18 21:49:33;;;;;;;5.40;2.65;;;5.90;60.50;;;;;;10048672;28;20496;-64
2021/03/18 21:54:24;;;;;;;4.45;2.97;;;6.00;60.60;;;;;;10047795;28;20049;-62
2021/03/18 21:59:15;;;;;;;3.72;2.72;;;6.00;60.70;;;;;;10049943;28;20291;-63
2021/03/18 22:04:06;;;;;;;6.22;3.25;;;6.00;60.70;;;;;;10045900;28;20044;-63
2021/03/18 22:08:56;;;;;;;6.18;3.08;;;6.00;60.90;;;;;;10056146;28;20024;-63
2021/03/18 22:13:47;;;;;;;5.43;3.22;;;6.00;60.90;;;;;;10048746;28;20038;-64
2021/03/18 22:18:38;;;;;;;4.68;2.72;;;5.90;61.50;;;;;;10048052;28;20104;-63
2021/03/18 22:23:29;;;;;;;4.03;2.47;;;5.70;61.50;;;;;;10048107;28;20047;-64
2021/03/18 22:28:20;;;;;;;6.43;3.92;;;5.70;61.70;;;;;;10047937;28;20462;-63
2021/03/18 22:33:10;;;;;;;10.02;3.97;;;5.60;61.70;;;;;;10047024;28;20358;-63
2021/03/18 22:38:01;;;;;;;6.22;3.85;;;5.60;62.20;;;;;;10051493;28;20225;-64
2021/03/18 22:42:55;;;;;;;8.05;3.17;;;5.40;63.30;;;;;;10046456;28;20029;-64
2021/03/18 22:47:46;;;;;;;7.55;3.67;;;5.30;63.80;;;;;;10048422;28;20028;-63
2021/03/18 22:52:37;;;;;;;7.75;3.70;;;5.30;65.30;;;;;;10047698;28;20541;-64
2021/03/18 22:57:27;;;;;;;6.03;3.95;;;5.30;65.00;;;;;;10047309;28;20581;-64
2021/03/18 23:02:18;;;;;;;6.15;3.72;;;5.30;65.10;;;;;;10048564;28;20031;-64
2021/03/18 23:07:09;;;;;;;9.32;4.00;;;5.30;65.30;;;;;;10048668;28;20033;-63
2021/03/18 23:12:00;;;;;;;7.30;3.45;;;5.20;65.10;;;;;;10057888;28;20398;-64
2021/03/18 23:22:17;;;;;;;6.07;3.30;;;5.30;66.20;;;;;;10059824;28;20044;-63
2021/03/18 23:27:08;;;;;;;5.47;3.42;;;5.20;66.40;;;;;;10050337;28;20098;-62
2021/03/18 23:32:00;;;;;;;5.97;3.50;;;5.30;66.70;;;;;;10054384;28;20045;-63
2021/03/18 23:36:51;;;;;;;8.30;4.03;;;5.40;66.80;;;;;;10053223;28;20025;-63
2021/03/18 23:41:41;;;;;;;7.03;2.58;;;5.30;66.40;;;;;;10052710;28;20029;-63
2021/03/18 23:46:32;;;;;;;11.98;4.68;;;5.20;68.00;;;;;;10055109;28;20029;-64
2021/03/18 23:51:23;;;;;;;7.07;3.38;;;5.10;67.60;;;;;;10055780;28;20387;-64
2021/03/18 23:56:14;;;;;;;8.10;3.47;;;5.10;69.00;;;;;;10051047;28;20037;-64
